sensor_id;sensor_type;location;lat;lon;timestamp;pressure;altitude;pressure_sealevel;temperature
60949;BMP280;46729;43.010;24.320;2022-09-23T00:01:09;97406.16;;;9.97
60949;BMP280;46729;43.010;24.320;2022-09-23T00:03:39;97405.06;;;10.06
60949;BMP280;46729;43.010;24.320;2022-09-23T00:06:08;97405.88;;;9.56
60949;BMP280;46729;43.010;24.320;2022-09-23T00:08:37;97411.44;;;9.25
60949;BMP280;46729;43.010;24.320;2022-09-23T00:11:12;97407.91;;;9.32
60949;BMP280;46729;43.010;24.320;2022-09-23T00:13:41;97404.25;;;9.55
60949;BMP280;46729;43.010;24.320;2022-09-23T00:16:12;97404.41;;;9.90
60949;BMP280;46729;43.010;24.320;2022-09-23T00:18:39;97408.41;;;9.86
60949;BMP280;46729;43.010;24.320;2022-09-23T00:21:10;97399.06;;;9.84
60949;BMP280;46729;43.010;24.320;2022-09-23T00:23:39;97402.34;;;9.64
60949;BMP280;46729;43.010;24.320;2022-09-23T00:26:07;97397.78;;;9.30
60949;BMP280;46729;43.010;24.320;2022-09-23T00:28:34;97389.91;;;9.30
60949;BMP280;46729;43.010;24.320;2022-09-23T00:31:13;97397.97;;;9.06
60949;BMP280;46729;43.010;24.320;2022-09-23T00:33:41;97402.38;;;8.92
60949;BMP280;46729;43.010;24.320;2022-09-23T00:36:14;97394.44;;;8.99
60949;BMP280;46729;43.010;24.320;2022-09-23T00:38:42;97390.44;;;8.67
60949;BMP280;46729;43.010;24.320;2022-09-23T00:41:11;97388.69;;;8.60
60949;BMP280;46729;43.010;24.320;2022-09-23T00:43:51;97383.72;;;8.65
60949;BMP280;46729;43.010;24.320;2022-09-23T00:46:23;97390.13;;;8.62
60949;BMP280;46729;43.010;24.320;2022-09-23T00:48:59;97382.78;;;8.58
60949;BMP280;46729;43.010;24.320;2022-09-23T00:51:32;97384.97;;;8.47
60949;BMP280;46729;43.010;24.320;2022-09-23T00:54:01;97373.81;;;8.53
60949;BMP280;46729;43.010;24.320;2022-09-23T00:56:29;97378.00;;;8.61
60949;BMP280;46729;43.010;24.320;2022-09-23T00:59:12;97382.34;;;8.76
60949;BMP280;46729;43.010;24.320;2022-09-23T01:01:38;97377.66;;;8.86
60949;BMP280;46729;43.010;24.320;2022-09-23T01:04:06;97368.81;;;8.65
60949;BMP280;46729;43.010;24.320;2022-09-23T01:06:33;97375.91;;;8.79
60949;BMP280;46729;43.010;24.320;2022-09-23T01:09:00;97373.81;;;8.53
60949;BMP280;46729;43.010;24.320;2022-09-23T01:11:52;97374.03;;;8.43
60949;BMP280;46729;43.010;24.320;2022-09-23T01:17:48;97377.44;;;8.74
60949;BMP280;46729;43.010;24.320;2022-09-23T01:20:47;97382.72;;;8.88
60949;BMP280;46729;43.010;24.320;2022-09-23T01:27:09;97387.41;;;9.00
60949;BMP280;46729;43.010;24.320;2022-09-23T01:32:54;97405.13;;;8.09
60949;BMP280;46729;43.010;24.320;2022-09-23T01:47:39;97397.75;;;8.12
60949;BMP280;46729;43.010;24.320;2022-09-23T01:50:18;97396.63;;;8.15
60949;BMP280;46729;43.010;24.320;2022-09-23T01:56:26;97393.72;;;7.94
60949;BMP280;46729;43.010;24.320;2022-09-23T01:59:22;97399.19;;;7.77
60949;BMP280;46729;43.010;24.320;2022-09-23T02:02:10;97392.28;;;7.99
60949;BMP280;46729;43.010;24.320;2022-09-23T02:04:48;97392.84;;;8.17
60949;BMP280;46729;43.010;24.320;2022-09-23T02:10:27;97389.50;;;8.31
60949;BMP280;46729;43.010;24.320;2022-09-23T02:13:08;97398.94;;;8.39
60949;BMP280;46729;43.010;24.320;2022-09-23T02:15:47;97407.44;;;8.04
60949;BMP280;46729;43.010;24.320;2022-09-23T02:18:21;97403.56;;;7.84
60949;BMP280;46729;43.010;24.320;2022-09-23T02:20:50;97414.66;;;7.94
60949;BMP280;46729;43.010;24.320;2022-09-23T02:23:32;97414.44;;;7.50
60949;BMP280;46729;43.010;24.320;2022-09-23T02:26:29;97421.34;;;7.36
60949;BMP280;46729;43.010;24.320;2022-09-23T02:29:04;97418.00;;;7.57
60949;BMP280;46729;43.010;24.320;2022-09-23T02:32:04;97417.50;;;7.69
60949;BMP280;46729;43.010;24.320;2022-09-23T02:41:34;97418.75;;;7.20
60949;BMP280;46729;43.010;24.320;2022-09-23T02:44:08;97430.00;;;6.97
60949;BMP280;46729;43.010;24.320;2022-09-23T02:46:38;97425.41;;;7.15
60949;BMP280;46729;43.010;24.320;2022-09-23T02:49:23;97434.06;;;7.15
60949;BMP280;46729;43.010;24.320;2022-09-23T02:51:51;97428.38;;;7.27
60949;BMP280;46729;43.010;24.320;2022-09-23T02:54:39;97436.84;;;7.45
60949;BMP280;46729;43.010;24.320;2022-09-23T02:57:07;97428.00;;;7.61
60949;BMP280;46729;43.010;24.320;2022-09-23T02:59:34;97429.94;;;7.67
60949;BMP280;46729;43.010;24.320;2022-09-23T03:05:27;97431.09;;;7.49
60949;BMP280;46729;43.010;24.320;2022-09-23T03:11:16;97433.88;;;7.63
60949;BMP280;46729;43.010;24.320;2022-09-23T03:14:13;97427.94;;;7.85
60949;BMP280;46729;43.010;24.320;2022-09-23T03:17:08;97431.53;;;7.84
60949;BMP280;46729;43.010;24.320;2022-09-23T03:20:06;97421.81;;;7.55
60949;BMP280;46729;43.010;24.320;2022-09-23T03:22:38;97419.81;;;7.64
60949;BMP280;46729;43.010;24.320;2022-09-23T03:25:14;97429.09;;;7.82
60949;BMP280;46729;43.010;24.320;2022-09-23T03:27:44;97423.88;;;7.67
60949;BMP280;46729;43.010;24.320;2022-09-23T03:30:13;97430.72;;;7.76
60949;BMP280;46729;43.010;24.320;2022-09-23T03:32:46;97428.31;;;7.59
60949;BMP280;46729;43.010;24.320;2022-09-23T03:35:13;97417.31;;;7.79
60949;BMP280;46729;43.010;24.320;2022-09-23T03:37:55;97427.94;;;7.85
60949;BMP280;46729;43.010;24.320;2022-09-23T03:40:33;97434.34;;;7.82
60949;BMP280;46729;43.010;24.320;2022-09-23T03:43:09;97429.69;;;7.92
60949;BMP280;46729;43.010;24.320;2022-09-23T03:45:38;97435.25;;;8.05
60949;BMP280;46729;43.010;24.320;2022-09-23T03:48:06;97437.38;;;7.94
60949;BMP280;46729;43.010;24.320;2022-09-23T03:50:33;97438.53;;;8.07
60949;BMP280;46729;43.010;24.320;2022-09-23T03:53:01;97436.84;;;8.21
60949;BMP280;46729;43.010;24.320;2022-09-23T03:55:28;97441.31;;;8.05
60949;BMP280;46729;43.010;24.320;2022-09-23T03:57:54;97443.28;;;8.03
60949;BMP280;46729;43.010;24.320;2022-09-23T04:00:22;97443.28;;;8.03
60949;BMP280;46729;43.010;24.320;2022-09-23T04:02:48;97450.63;;;8.16
60949;BMP280;46729;43.010;24.320;2022-09-23T04:05:16;97450.97;;;8.05
60949;BMP280;46729;43.010;24.320;2022-09-23T04:07:43;97451.66;;;7.99
60949;BMP280;46729;43.010;24.320;2022-09-23T04:10:10;97452.94;;;8.03
60949;BMP280;46729;43.010;24.320;2022-09-23T04:12:37;97464.53;;;7.93
60949;BMP280;46729;43.010;24.320;2022-09-23T04:15:04;97476.06;;;7.45
60949;BMP280;46729;43.010;24.320;2022-09-23T04:17:33;97464.31;;;7.18
60949;BMP280;46729;43.010;24.320;2022-09-23T04:19:59;97471.16;;;7.26
60949;BMP280;46729;43.010;24.320;2022-09-23T04:22:26;97471.16;;;7.19
60949;BMP280;46729;43.010;24.320;2022-09-23T04:24:53;97471.81;;;7.36
60949;BMP280;46729;43.010;24.320;2022-09-23T04:27:20;97470.97;;;7.59
60949;BMP280;46729;43.010;24.320;2022-09-23T04:29:48;97475.06;;;7.61
60949;BMP280;46729;43.010;24.320;2022-09-23T04:32:15;97479.50;;;7.53
60949;BMP280;46729;43.010;24.320;2022-09-23T04:34:42;97467.84;;;7.79
60949;BMP280;46729;43.010;24.320;2022-09-23T04:37:09;97473.06;;;8.02
60949;BMP280;46729;43.010;24.320;2022-09-23T04:39:35;97463.00;;;8.21
60949;BMP280;46729;43.010;24.320;2022-09-23T04:42:02;97466.69;;;8.42
60949;BMP280;46729;43.010;24.320;2022-09-23T04:44:30;97468.31;;;8.43
60949;BMP280;46729;43.010;24.320;2022-09-23T04:46:57;97466.31;;;8.53
60949;BMP280;46729;43.010;24.320;2022-09-23T04:49:24;97470.50;;;8.62
60949;BMP280;46729;43.010;24.320;2022-09-23T04:51:51;97465.81;;;8.57
60949;BMP280;46729;43.010;24.320;2022-09-23T04:54:19;97466.81;;;8.49
60949;BMP280;46729;43.010;24.320;2022-09-23T04:56:46;97467.28;;;8.52
60949;BMP280;46729;43.010;24.320;2022-09-23T04:59:12;97456.13;;;8.58
60949;BMP280;46729;43.010;24.320;2022-09-23T05:01:39;97467.72;;;8.34
60949;BMP280;46729;43.010;24.320;2022-09-23T05:04:08;97470.59;;;8.46
60949;BMP280;46729;43.010;24.320;2022-09-23T05:06:35;97469.38;;;8.64
60949;BMP280;46729;43.010;24.320;2022-09-23T05:09:04;97473.63;;;8.65
60949;BMP280;46729;43.010;24.320;2022-09-23T05:11:32;97474.19;;;8.45
60949;BMP280;46729;43.010;24.320;2022-09-23T05:13:59;97481.25;;;8.45
60949;BMP280;46729;43.010;24.320;2022-09-23T05:16:26;97479.84;;;8.64
60949;BMP280;46729;43.010;24.320;2022-09-23T05:18:53;97484.09;;;8.65
60949;BMP280;46729;43.010;24.320;2022-09-23T05:21:24;97477.72;;;8.68
60949;BMP280;46729;43.010;24.320;2022-09-23T05:23:55;97485.53;;;8.75
60949;BMP280;46729;43.010;24.320;2022-09-23T05:26:25;97484.44;;;8.62
60949;BMP280;46729;43.010;24.320;2022-09-23T05:28:53;97484.78;;;8.89
60949;BMP280;46729;43.010;24.320;2022-09-23T05:31:22;97488.41;;;9.10
60949;BMP280;46729;43.010;24.320;2022-09-23T05:33:54;97493.50;;;9.12
60949;BMP280;46729;43.010;24.320;2022-09-23T05:36:23;97487.19;;;9.20
60949;BMP280;46729;43.010;24.320;2022-09-23T05:38:50;97487.91;;;9.36
60949;BMP280;46729;43.010;24.320;2022-09-23T05:41:19;97482.28;;;9.39
60949;BMP280;46729;43.010;24.320;2022-09-23T05:43:51;97479.47;;;9.41
60949;BMP280;46729;43.010;24.320;2022-09-23T05:46:21;97496.47;;;9.67
60949;BMP280;46729;43.010;24.320;2022-09-23T05:48:50;97492.22;;;9.88
60949;BMP280;46729;43.010;24.320;2022-09-23T05:51:24;97495.53;;;9.82
60949;BMP280;46729;43.010;24.320;2022-09-23T05:53:52;97493.59;;;9.76
60949;BMP280;46729;43.010;24.320;2022-09-23T05:56:22;97488.03;;;9.79
60949;BMP280;46729;43.010;24.320;2022-09-23T05:58:50;97481.91;;;9.86
60949;BMP280;46729;43.010;24.320;2022-09-23T06:01:20;97474.25;;;9.77
60949;BMP280;46729;43.010;24.320;2022-09-23T06:03:52;97479.38;;;9.92
60949;BMP280;46729;43.010;24.320;2022-09-23T06:06:24;97481.91;;;10.00
60949;BMP280;46729;43.010;24.320;2022-09-23T06:08:51;97481.66;;;10.09
60949;BMP280;46729;43.010;24.320;2022-09-23T06:11:19;97480.38;;;10.20
60949;BMP280;46729;43.010;24.320;2022-09-23T06:13:48;97485.19;;;10.30
60949;BMP280;46729;43.010;24.320;2022-09-23T06:16:16;97487.44;;;10.62
60949;BMP280;46729;43.010;24.320;2022-09-23T06:18:47;97485.88;;;10.81
60949;BMP280;46729;43.010;24.320;2022-09-23T06:21:18;97475.56;;;11.21
60949;BMP280;46729;43.010;24.320;2022-09-23T06:23:45;97474.50;;;11.50
60949;BMP280;46729;43.010;24.320;2022-09-23T06:26:14;97478.34;;;11.74
60949;BMP280;46729;43.010;24.320;2022-09-23T06:28:43;97482.44;;;11.77
60949;BMP280;46729;43.010;24.320;2022-09-23T06:31:12;97476.63;;;11.87
60949;BMP280;46729;43.010;24.320;2022-09-23T06:33:41;97478.88;;;11.90
60949;BMP280;46729;43.010;24.320;2022-09-23T06:36:08;97484.00;;;11.98
60949;BMP280;46729;43.010;24.320;2022-09-23T06:38:42;97491.69;;;11.93
60949;BMP280;46729;43.010;24.320;2022-09-23T06:41:14;97495.75;;;11.96
60949;BMP280;46729;43.010;24.320;2022-09-23T06:43:41;97486.94;;;12.09
60949;BMP280;46729;43.010;24.320;2022-09-23T06:46:13;97490.19;;;12.11
60949;BMP280;46729;43.010;24.320;2022-09-23T06:48:41;97489.56;;;12.09
60949;BMP280;46729;43.010;24.320;2022-09-23T06:51:14;97494.88;;;12.16
60949;BMP280;46729;43.010;24.320;2022-09-23T06:53:46;97494.59;;;12.04
60949;BMP280;46729;43.010;24.320;2022-09-23T06:56:13;97495.88;;;12.15
60949;BMP280;46729;43.010;24.320;2022-09-23T06:58:42;97500.78;;;12.18
60949;BMP280;46729;43.010;24.320;2022-09-23T07:01:11;97496.75;;;12.21
60949;BMP280;46729;43.010;24.320;2022-09-23T07:03:40;97502.88;;;12.28
60949;BMP280;46729;43.010;24.320;2022-09-23T07:06:07;97511.97;;;12.26
60949;BMP280;46729;43.010;24.320;2022-09-23T07:08:34;97514.19;;;12.22
60949;BMP280;46729;43.010;24.320;2022-09-23T07:11:04;97510.84;;;12.41
60949;BMP280;46729;43.010;24.320;2022-09-23T07:13:32;97505.28;;;12.56
60949;BMP280;46729;43.010;24.320;2022-09-23T07:16:00;97499.31;;;12.75
60949;BMP280;46729;43.010;24.320;2022-09-23T07:18:30;97493.69;;;12.91
60949;BMP280;46729;43.010;24.320;2022-09-23T07:21:13;97499.25;;;13.08
60949;BMP280;46729;43.010;24.320;2022-09-23T07:23:46;97495.66;;;13.22
60949;BMP280;46729;43.010;24.320;2022-09-23T07:26:16;97499.31;;;13.33
60949;BMP280;46729;43.010;24.320;2022-09-23T07:28:43;97510.13;;;13.45
60949;BMP280;46729;43.010;24.320;2022-09-23T07:31:16;97508.34;;;13.64
60949;BMP280;46729;43.010;24.320;2022-09-23T07:33:44;97512.31;;;13.35
60949;BMP280;46729;43.010;24.320;2022-09-23T07:36:13;97506.28;;;13.41
60949;BMP280;46729;43.010;24.320;2022-09-23T07:38:43;97503.56;;;13.15
60949;BMP280;46729;43.010;24.320;2022-09-23T07:41:12;97518.34;;;13.10
60949;BMP280;46729;43.010;24.320;2022-09-23T07:43:40;97504.53;;;13.08
60949;BMP280;46729;43.010;24.320;2022-09-23T07:46:13;97515.34;;;13.26
60949;BMP280;46729;43.010;24.320;2022-09-23T07:48:44;97514.97;;;13.29
60949;BMP280;46729;43.010;24.320;2022-09-23T07:51:19;97509.91;;;12.81
60949;BMP280;46729;43.010;24.320;2022-09-23T07:53:50;97511.16;;;12.92
60949;BMP280;46729;43.010;24.320;2022-09-23T07:56:18;97524.59;;;13.03
60949;BMP280;46729;43.010;24.320;2022-09-23T07:58:46;97516.94;;;13.14
60949;BMP280;46729;43.010;24.320;2022-09-23T08:01:31;97517.41;;;12.78
60949;BMP280;46729;43.010;24.320;2022-09-23T08:04:00;97523.69;;;12.83
60949;BMP280;46729;43.010;24.320;2022-09-23T08:06:28;97517.50;;;12.97
60949;BMP280;46729;43.010;24.320;2022-09-23T08:08:59;97520.94;;;12.97
60949;BMP280;46729;43.010;24.320;2022-09-23T08:11:27;97525.88;;;13.19
60949;BMP280;46729;43.010;24.320;2022-09-23T08:13:53;97519.47;;;13.41
60949;BMP280;46729;43.010;24.320;2022-09-23T08:16:20;97517.22;;;13.44
60949;BMP280;46729;43.010;24.320;2022-09-23T08:18:47;97522.31;;;13.46
60949;BMP280;46729;43.010;24.320;2022-09-23T08:21:23;97520.88;;;13.43
60949;BMP280;46729;43.010;24.320;2022-09-23T08:23:50;97519.31;;;13.68
60949;BMP280;46729;43.010;24.320;2022-09-23T08:26:17;97502.88;;;14.23
60949;BMP280;46729;43.010;24.320;2022-09-23T08:28:44;97502.66;;;14.37
60949;BMP280;46729;43.010;24.320;2022-09-23T08:31:13;97492.53;;;14.15
60949;BMP280;46729;43.010;24.320;2022-09-23T08:33:40;97495.28;;;14.64
60949;BMP280;46729;43.010;24.320;2022-09-23T08:36:07;97498.06;;;14.82
60949;BMP280;46729;43.010;24.320;2022-09-23T08:38:37;97495.63;;;14.86
60949;BMP280;46729;43.010;24.320;2022-09-23T08:43:55;97486.19;;;15.09
60949;BMP280;46729;43.010;24.320;2022-09-23T08:46:31;97494.25;;;14.78
60949;BMP280;46729;43.010;24.320;2022-09-23T08:49:01;97502.66;;;14.43
60949;BMP280;46729;43.010;24.320;2022-09-23T08:51:43;97503.47;;;13.80
60949;BMP280;46729;43.010;24.320;2022-09-23T08:54:12;97494.97;;;14.10
60949;BMP280;46729;43.010;24.320;2022-09-23T08:56:45;97500.03;;;14.43
60949;BMP280;46729;43.010;24.320;2022-09-23T08:59:42;97496.25;;;14.82
60949;BMP280;46729;43.010;24.320;2022-09-23T09:02:29;97505.91;;;14.39
60949;BMP280;46729;43.010;24.320;2022-09-23T09:05:00;97497.59;;;14.42
60949;BMP280;46729;43.010;24.320;2022-09-23T09:07:32;97505.91;;;14.39
60949;BMP280;46729;43.010;24.320;2022-09-23T09:10:15;97487.28;;;14.96
60949;BMP280;46729;43.010;24.320;2022-09-23T09:13:04;97486.47;;;14.83
60949;BMP280;46729;43.010;24.320;2022-09-23T09:15:52;97478.72;;;15.37
60949;BMP280;46729;43.010;24.320;2022-09-23T09:18:26;97477.44;;;15.09
60949;BMP280;46729;43.010;24.320;2022-09-23T09:21:24;97480.53;;;15.00
60949;BMP280;46729;43.010;24.320;2022-09-23T09:23:59;97481.03;;;15.57
60949;BMP280;46729;43.010;24.320;2022-09-23T09:26:31;97478.69;;;16.03
60949;BMP280;46729;43.010;24.320;2022-09-23T09:29:11;97477.03;;;16.26
60949;BMP280;46729;43.010;24.320;2022-09-23T09:31:44;97477.38;;;16.12
60949;BMP280;46729;43.010;24.320;2022-09-23T09:37:24;97454.69;;;17.39
60949;BMP280;46729;43.010;24.320;2022-09-23T09:39:53;97465.25;;;16.99
60949;BMP280;46729;43.010;24.320;2022-09-23T09:42:26;97464.00;;;16.84
60949;BMP280;46729;43.010;24.320;2022-09-23T09:45:00;97460.34;;;16.78
60949;BMP280;46729;43.010;24.320;2022-09-23T09:47:58;97472.16;;;16.65
60949;BMP280;46729;43.010;24.320;2022-09-23T09:50:52;97461.94;;;16.86
60949;BMP280;46729;43.010;24.320;2022-09-23T09:53:23;97469.94;;;16.79
60949;BMP280;46729;43.010;24.320;2022-09-23T09:56:10;97457.72;;;17.42
60949;BMP280;46729;43.010;24.320;2022-09-23T09:58:57;97456.75;;;17.94
60949;BMP280;46729;43.010;24.320;2022-09-23T10:01:32;97445.66;;;18.42
60949;BMP280;46729;43.010;24.320;2022-09-23T10:04:20;97448.78;;;18.62
60949;BMP280;46729;43.010;24.320;2022-09-23T10:07:06;97461.84;;;18.07
60949;BMP280;46729;43.010;24.320;2022-09-23T10:09:36;97443.28;;;19.02
60949;BMP280;46729;43.010;24.320;2022-09-23T10:12:23;97445.59;;;19.09
60949;BMP280;46729;43.010;24.320;2022-09-23T10:14:58;97450.50;;;18.68
60949;BMP280;46729;43.010;24.320;2022-09-23T10:17:32;97440.00;;;19.11
60949;BMP280;46729;43.010;24.320;2022-09-23T10:20:06;97437.63;;;19.53
60949;BMP280;46729;43.010;24.320;2022-09-23T10:22:37;97446.09;;;18.95
60949;BMP280;46729;43.010;24.320;2022-09-23T10:25:23;97450.06;;;18.26
60949;BMP280;46729;43.010;24.320;2022-09-23T10:31:25;97443.13;;;17.62
60949;BMP280;46729;43.010;24.320;2022-09-23T10:33:55;97449.69;;;17.31
60949;BMP280;46729;43.010;24.320;2022-09-23T10:36:27;97434.31;;;18.02
60949;BMP280;46729;43.010;24.320;2022-09-23T10:39:02;97419.28;;;18.63
60949;BMP280;46729;43.010;24.320;2022-09-23T10:45:21;97409.44;;;19.68
60949;BMP280;46729;43.010;24.320;2022-09-23T10:48:41;97403.53;;;19.98
60949;BMP280;46729;43.010;24.320;2022-09-23T10:51:25;97406.97;;;19.23
60949;BMP280;46729;43.010;24.320;2022-09-23T10:57:39;97404.97;;;19.30
60949;BMP280;46729;43.010;24.320;2022-09-23T11:13:47;97385.34;;;20.27
60949;BMP280;46729;43.010;24.320;2022-09-23T11:16:27;97372.06;;;21.11
60949;BMP280;46729;43.010;24.320;2022-09-23T11:28:41;97395.22;;;18.25
60949;BMP280;46729;43.010;24.320;2022-09-23T11:37:34;97405.56;;;17.30
60949;BMP280;46729;43.010;24.320;2022-09-23T11:40:31;97396.78;;;17.81
60949;BMP280;46729;43.010;24.320;2022-09-23T11:43:25;97388.59;;;17.71
60949;BMP280;46729;43.010;24.320;2022-09-23T11:49:02;97383.31;;;17.02
60949;BMP280;46729;43.010;24.320;2022-09-23T11:52:11;97386.28;;;16.77
60949;BMP280;46729;43.010;24.320;2022-09-23T11:55:00;97379.00;;;17.19
60949;BMP280;46729;43.010;24.320;2022-09-23T11:57:52;97372.81;;;18.10
60949;BMP280;46729;43.010;24.320;2022-09-23T12:00:24;97348.59;;;18.45
60949;BMP280;46729;43.010;24.320;2022-09-23T12:06:08;97350.56;;;18.49
60949;BMP280;46729;43.010;24.320;2022-09-23T12:08:39;97355.94;;;18.04
60949;BMP280;46729;43.010;24.320;2022-09-23T12:11:09;97355.81;;;18.11
60949;BMP280;46729;43.010;24.320;2022-09-23T12:14:19;97344.94;;;18.12
60949;BMP280;46729;43.010;24.320;2022-09-23T12:20:13;97325.50;;;19.86
60949;BMP280;46729;43.010;24.320;2022-09-23T12:23:12;97316.84;;;19.64
60949;BMP280;46729;43.010;24.320;2022-09-23T12:26:04;97329.72;;;20.20
60949;BMP280;46729;43.010;24.320;2022-09-23T12:28:36;97322.03;;;19.70
60949;BMP280;46729;43.010;24.320;2022-09-23T12:31:18;97337.63;;;19.18
60949;BMP280;46729;43.010;24.320;2022-09-23T12:33:52;97345.19;;;18.83
60949;BMP280;46729;43.010;24.320;2022-09-23T12:36:33;97345.13;;;18.33
60949;BMP280;46729;43.010;24.320;2022-09-23T12:39:05;97352.13;;;18.12
60949;BMP280;46729;43.010;24.320;2022-09-23T12:41:41;97342.91;;;18.41
60949;BMP280;46729;43.010;24.320;2022-09-23T12:47:35;97317.97;;;19.67
60949;BMP280;46729;43.010;24.320;2022-09-23T12:50:57;97324.56;;;19.97
60949;BMP280;46729;43.010;24.320;2022-09-23T12:53:48;97319.53;;;20.54
60949;BMP280;46729;43.010;24.320;2022-09-23T12:59:28;97309.19;;;21.04
60949;BMP280;46729;43.010;24.320;2022-09-23T13:01:55;97304.63;;;21.25
60949;BMP280;46729;43.010;24.320;2022-09-23T13:07:43;97306.53;;;20.83
60949;BMP280;46729;43.010;24.320;2022-09-23T13:10:33;97308.41;;;19.87
60949;BMP280;46729;43.010;24.320;2022-09-23T13:13:19;97302.28;;;19.71
60949;BMP280;46729;43.010;24.320;2022-09-23T13:15:48;97304.09;;;20.19
60949;BMP280;46729;43.010;24.320;2022-09-23T13:18:47;97296.38;;;20.80
60949;BMP280;46729;43.010;24.320;2022-09-23T13:21:25;97290.59;;;21.39
60949;BMP280;46729;43.010;24.320;2022-09-23T13:29:54;97296.28;;;20.96
60949;BMP280;46729;43.010;24.320;2022-09-23T13:32:27;97296.72;;;20.25
60949;BMP280;46729;43.010;24.320;2022-09-23T13:35:25;97300.09;;;20.79
60949;BMP280;46729;43.010;24.320;2022-09-23T13:37:54;97304.28;;;21.17
60949;BMP280;46729;43.010;24.320;2022-09-23T13:40:27;97299.91;;;21.32
60949;BMP280;46729;43.010;24.320;2022-09-23T13:43:06;97292.66;;;21.07
60949;BMP280;46729;43.010;24.320;2022-09-23T13:45:36;97299.09;;;21.11
60949;BMP280;46729;43.010;24.320;2022-09-23T13:48:12;97301.00;;;21.36
60949;BMP280;46729;43.010;24.320;2022-09-23T13:50:49;97304.38;;;21.27
60949;BMP280;46729;43.010;24.320;2022-09-23T13:53:29;97293.97;;;21.04
60949;BMP280;46729;43.010;24.320;2022-09-23T13:56:19;97293.25;;;20.88
60949;BMP280;46729;43.010;24.320;2022-09-23T13:58:48;97289.34;;;21.00
60949;BMP280;46729;43.010;24.320;2022-09-23T14:01:33;97294.97;;;20.73
60949;BMP280;46729;43.010;24.320;2022-09-23T14:04:00;97299.69;;;20.29
60949;BMP280;46729;43.010;24.320;2022-09-23T14:06:46;97294.34;;;19.92
60949;BMP280;46729;43.010;24.320;2022-09-23T14:09:14;97293.06;;;19.62
60949;BMP280;46729;43.010;24.320;2022-09-23T14:11:42;97303.41;;;19.27
60949;BMP280;46729;43.010;24.320;2022-09-23T14:14:12;97304.75;;;18.86
60949;BMP280;46729;43.010;24.320;2022-09-23T14:16:41;97313.13;;;18.78
60949;BMP280;46729;43.010;24.320;2022-09-23T14:19:12;97308.81;;;18.38
60949;BMP280;46729;43.010;24.320;2022-09-23T14:21:47;97313.25;;;18.22
60949;BMP280;46729;43.010;24.320;2022-09-23T14:29:29;97308.50;;;17.68
60949;BMP280;46729;43.010;24.320;2022-09-23T14:32:02;97309.88;;;17.59
60949;BMP280;46729;43.010;24.320;2022-09-23T14:40:24;97328.81;;;16.54
60949;BMP280;46729;43.010;24.320;2022-09-23T14:43:15;97335.41;;;16.34
60949;BMP280;46729;43.010;24.320;2022-09-23T14:45:53;97325.72;;;16.39
60949;BMP280;46729;43.010;24.320;2022-09-23T14:48:29;97334.72;;;16.84
60949;BMP280;46729;43.010;24.320;2022-09-23T14:51:01;97317.84;;;17.36
60949;BMP280;46729;43.010;24.320;2022-09-23T14:53:44;97320.03;;;17.51
60949;BMP280;46729;43.010;24.320;2022-09-23T14:56:22;97317.75;;;17.14
60949;BMP280;46729;43.010;24.320;2022-09-23T14:58:52;97322.19;;;16.91
60949;BMP280;46729;43.010;24.320;2022-09-23T15:01:36;97319.22;;;17.28
60949;BMP280;46729;43.010;24.320;2022-09-23T15:06:53;97322.19;;;17.31
60949;BMP280;46729;43.010;24.320;2022-09-23T15:09:26;97307.13;;;17.54
60949;BMP280;46729;43.010;24.320;2022-09-23T15:12:00;97320.78;;;17.17
60949;BMP280;46729;43.010;24.320;2022-09-23T15:14:30;97323.44;;;17.17
60949;BMP280;46729;43.010;24.320;2022-09-23T15:17:01;97321.72;;;17.23
60949;BMP280;46729;43.010;24.320;2022-09-23T15:19:28;97326.53;;;17.15
60949;BMP280;46729;43.010;24.320;2022-09-23T15:21:57;97332.16;;;16.78
60949;BMP280;46729;43.010;24.320;2022-09-23T15:24:43;97333.91;;;16.38
60949;BMP280;46729;43.010;24.320;2022-09-23T15:29:54;97345.91;;;16.05
60949;BMP280;46729;43.010;24.320;2022-09-23T15:32:26;97337.16;;;16.04
60949;BMP280;46729;43.010;24.320;2022-09-23T15:34:53;97343.84;;;15.83
60949;BMP280;46729;43.010;24.320;2022-09-23T15:37:20;97349.47;;;15.93
60949;BMP280;46729;43.010;24.320;2022-09-23T15:39:50;97345.16;;;15.74
60949;BMP280;46729;43.010;24.320;2022-09-23T15:42:17;97359.78;;;15.59
60949;BMP280;46729;43.010;24.320;2022-09-23T15:44:44;97357.78;;;15.55
60949;BMP280;46729;43.010;24.320;2022-09-23T15:47:18;97355.56;;;15.52
60949;BMP280;46729;43.010;24.320;2022-09-23T15:49:47;97362.81;;;15.63
60949;BMP280;46729;43.010;24.320;2022-09-23T15:52:14;97360.91;;;15.22
60949;BMP280;46729;43.010;24.320;2022-09-23T15:54:47;97375.84;;;14.67
60949;BMP280;46729;43.010;24.320;2022-09-23T15:57:15;97373.66;;;14.58
60949;BMP280;46729;43.010;24.320;2022-09-23T15:59:41;97372.28;;;14.43
60949;BMP280;46729;43.010;24.320;2022-09-23T16:02:16;97381.78;;;13.75
60949;BMP280;46729;43.010;24.320;2022-09-23T16:04:46;97385.00;;;13.71
60949;BMP280;46729;43.010;24.320;2022-09-23T16:07:15;97385.03;;;13.58
60949;BMP280;46729;43.010;24.320;2022-09-23T16:09:43;97378.75;;;13.40
60949;BMP280;46729;43.010;24.320;2022-09-23T16:12:10;97381.19;;;13.42
60949;BMP280;46729;43.010;24.320;2022-09-23T16:14:37;97386.84;;;13.14
60949;BMP280;46729;43.010;24.320;2022-09-23T16:17:04;97382.94;;;12.97
60949;BMP280;46729;43.010;24.320;2022-09-23T16:19:30;97383.53;;;12.93
60949;BMP280;46729;43.010;24.320;2022-09-23T16:22:00;97388.41;;;12.89
60949;BMP280;46729;43.010;24.320;2022-09-23T16:24:27;97381.50;;;12.95
60949;BMP280;46729;43.010;24.320;2022-09-23T16:26:55;97383.09;;;12.76
60949;BMP280;46729;43.010;24.320;2022-09-23T16:29:25;97381.47;;;12.82
60949;BMP280;46729;43.010;24.320;2022-09-23T16:31:53;97392.72;;;12.57
60949;BMP280;46729;43.010;24.320;2022-09-23T16:34:20;97389.69;;;12.54
60949;BMP280;46729;43.010;24.320;2022-09-23T16:36:47;97389.84;;;12.46
60949;BMP280;46729;43.010;24.320;2022-09-23T16:39:14;97383.72;;;12.39
60949;BMP280;46729;43.010;24.320;2022-09-23T16:41:41;97391.41;;;12.28
60949;BMP280;46729;43.010;24.320;2022-09-23T16:44:09;97392.78;;;12.24
60949;BMP280;46729;43.010;24.320;2022-09-23T16:46:38;97395.19;;;12.13
60949;BMP280;46729;43.010;24.320;2022-09-23T16:49:08;97392.22;;;12.28